createdAt,value
2023-08-25T00:01:30.670Z,4.80
2023-08-25T00:03:58.759Z,4.50
2023-08-25T00:06:25.425Z,4.97
2023-08-25T00:08:51.966Z,3.90
2023-08-25T00:11:18.549Z,4.85
2023-08-25T00:13:45.371Z,4.43
2023-08-25T00:16:12.237Z,4.50
2023-08-25T00:18:38.990Z,4.70
2023-08-25T00:21:06.940Z,4.25
2023-08-25T00:23:33.476Z,5.32
2023-08-25T00:26:00.444Z,5.00
2023-08-25T00:28:27.255Z,4.35
2023-08-25T00:30:54.209Z,4.60
2023-08-25T00:33:20.875Z,4.60
2023-08-25T00:35:47.771Z,4.90
2023-08-25T00:38:16.888Z,4.93
2023-08-25T00:40:43.533Z,4.60
2023-08-25T00:43:10.163Z,4.95
2023-08-25T00:45:39.145Z,5.00
2023-08-25T00:48:06.600Z,4.22
2023-08-25T00:50:33.478Z,4.30
2023-08-25T00:53:01.184Z,4.10
2023-08-25T00:55:31.254Z,4.00
2023-08-25T00:57:59.501Z,3.80
2023-08-25T01:00:27.130Z,3.80
2023-08-25T01:02:54.731Z,3.50
2023-08-25T01:05:21.597Z,3.90
2023-08-25T01:07:49.077Z,3.20
2023-08-25T01:10:16.998Z,3.00
2023-08-25T01:12:56.045Z,3.20
2023-08-25T01:15:26.686Z,3.47
2023-08-25T01:17:58.814Z,3.38
2023-08-25T01:20:26.223Z,3.35
2023-08-25T01:22:58.525Z,3.95
2023-08-25T01:25:27.553Z,3.38
2023-08-25T01:27:54.873Z,3.35
2023-08-25T01:30:24.142Z,3.50
2023-08-25T01:32:50.845Z,3.40
2023-08-25T01:35:17.605Z,3.20
2023-08-25T01:37:49.421Z,3.50
2023-08-25T01:40:18.239Z,2.53
2023-08-25T01:42:47.141Z,3.08
2023-08-25T01:45:14.578Z,2.88
2023-08-25T01:47:41.414Z,2.95
2023-08-25T01:50:08.967Z,2.63
2023-08-25T01:52:35.546Z,2.70
2023-08-25T01:55:02.407Z,3.10
2023-08-25T01:57:30.537Z,2.83
2023-08-25T01:59:58.517Z,3.28
2023-08-25T02:02:25.197Z,2.90
2023-08-25T02:04:51.836Z,3.50
2023-08-25T02:07:18.517Z,2.80
2023-08-25T02:09:45.150Z,2.95
2023-08-25T02:12:11.699Z,3.22
2023-08-25T02:14:39.063Z,3.50
2023-08-25T02:17:07.014Z,3.50
2023-08-25T02:19:35.910Z,3.72
2023-08-25T02:22:02.501Z,4.07
2023-08-25T02:24:29.079Z,3.40
2023-08-25T02:26:55.655Z,4.25
2023-08-25T02:29:22.786Z,3.70
2023-08-25T02:31:49.477Z,4.13
2023-08-25T02:34:19.225Z,3.15
2023-08-25T02:36:46.902Z,3.83
2023-08-25T02:39:16.185Z,3.40
2023-08-25T02:41:43.049Z,3.38
2023-08-25T02:44:10.256Z,3.72
2023-08-25T02:46:38.549Z,3.13
2023-08-25T02:49:05.115Z,4.00
2023-08-25T02:51:33.133Z,3.40
2023-08-25T02:53:59.830Z,3.45
2023-08-25T02:56:26.682Z,3.50
2023-08-25T02:58:53.569Z,4.03
2023-08-25T03:01:20.179Z,3.70
2023-08-25T03:03:46.790Z,3.97
2023-08-25T03:06:14.184Z,4.10
2023-08-25T03:08:46.248Z,4.07
2023-08-25T03:11:14.349Z,4.05
2023-08-25T03:13:41.425Z,3.80
2023-08-25T03:16:09.536Z,3.80
2023-08-25T03:18:38.313Z,4.40
2023-08-25T03:21:05.794Z,4.47
2023-08-25T03:23:32.854Z,4.13
2023-08-25T03:26:03.121Z,4.70
2023-08-25T03:28:29.739Z,4.18
2023-08-25T03:30:56.573Z,4.10
2023-08-25T03:33:24.948Z,4.30
2023-08-25T03:35:52.278Z,4.10
2023-08-25T03:38:19.870Z,4.38
2023-08-25T03:40:47.209Z,4.10
2023-08-25T03:43:15.207Z,4.38
2023-08-25T03:45:41.743Z,4.20
2023-08-25T03:48:08.388Z,4.27
2023-08-25T03:50:34.966Z,3.70
2023-08-25T03:53:01.828Z,3.63
2023-08-25T03:55:28.415Z,3.50
2023-08-25T03:57:55.307Z,4.70
2023-08-25T04:00:23.791Z,3.75
2023-08-25T04:02:50.469Z,3.70
2023-08-25T04:05:17.099Z,4.32
2023-08-25T04:07:45.799Z,4.15
2023-08-25T04:10:12.436Z,4.03
2023-08-25T04:12:39.064Z,3.70
2023-08-25T04:15:06.052Z,4.20
2023-08-25T04:17:36.084Z,4.00
2023-08-25T04:20:03.695Z,3.60
2023-08-25T04:22:30.282Z,4.00
2023-08-25T04:24:59.498Z,4.30
2023-08-25T04:27:26.396Z,3.67
2023-08-25T04:29:53.707Z,3.90
2023-08-25T04:32:20.589Z,3.90
2023-08-25T04:34:50.453Z,3.95
2023-08-25T04:37:17.378Z,4.00
2023-08-25T04:39:43.973Z,3.65
2023-08-25T04:42:10.800Z,3.90
2023-08-25T04:44:37.469Z,4.30
2023-08-25T04:47:05.024Z,4.00
2023-08-25T04:59:24.889Z,3.77
2023-08-25T05:01:51.948Z,5.53
2023-08-25T05:04:18.746Z,5.20
2023-08-25T05:06:45.613Z,5.00
2023-08-25T05:09:13.196Z,4.70
2023-08-25T05:11:40.819Z,5.30
2023-08-25T05:14:08.919Z,4.85
2023-08-25T05:16:37.016Z,5.32
2023-08-25T05:19:10.384Z,4.85
2023-08-25T05:21:37.287Z,4.70
2023-08-25T05:24:16.490Z,5.22
2023-08-25T05:26:44.472Z,5.28
2023-08-25T05:29:11.095Z,5.40
2023-08-25T05:31:39.404Z,5.43
2023-08-25T05:34:30.020Z,5.07
2023-08-25T05:37:01.009Z,5.03
2023-08-25T05:39:28.289Z,5.30
2023-08-25T05:41:54.865Z,4.60
2023-08-25T05:44:21.548Z,4.77
2023-08-25T05:46:49.601Z,5.20
2023-08-25T05:49:18.260Z,5.28
2023-08-25T05:51:45.635Z,5.30
2023-08-25T05:54:13.828Z,5.40
2023-08-25T05:56:42.751Z,4.78
2023-08-25T05:59:09.317Z,5.18
2023-08-25T06:01:36.493Z,5.10
2023-08-25T06:04:05.007Z,5.45
2023-08-25T06:06:32.412Z,5.40
2023-08-25T06:08:58.980Z,5.03
2023-08-25T06:11:26.681Z,5.22
2023-08-25T06:13:53.389Z,5.20
2023-08-25T06:16:20.470Z,5.10
2023-08-25T06:18:47.046Z,4.60
2023-08-25T06:21:15.065Z,4.55
2023-08-25T06:23:41.622Z,4.85
2023-08-25T06:26:08.316Z,4.60
2023-08-25T06:28:35.043Z,4.70
2023-08-25T06:31:01.732Z,4.50
2023-08-25T06:33:31.329Z,4.72
2023-08-25T06:35:58.128Z,4.75
2023-08-25T06:38:26.065Z,4.70
2023-08-25T06:40:52.952Z,5.22
2023-08-25T06:43:19.620Z,4.75
2023-08-25T06:45:46.218Z,4.70
2023-08-25T06:48:12.782Z,4.72
2023-08-25T06:50:40.009Z,4.50
2023-08-25T06:53:08.724Z,4.95
2023-08-25T06:55:37.630Z,4.43
2023-08-25T06:58:07.626Z,4.63
2023-08-25T07:00:34.261Z,4.22
2023-08-25T07:03:03.098Z,5.05
2023-08-25T07:05:29.900Z,5.22
2023-08-25T07:07:56.647Z,4.70
2023-08-25T07:10:23.557Z,4.87
2023-08-25T07:12:51.609Z,4.88
2023-08-25T07:15:20.621Z,4.55
2023-08-25T07:17:48.498Z,4.78
2023-08-25T07:20:17.259Z,4.78
2023-08-25T07:22:44.234Z,4.30
2023-08-25T07:25:11.072Z,5.10
2023-08-25T07:27:37.673Z,4.90
2023-08-25T07:30:07.599Z,4.72
2023-08-25T07:32:34.470Z,4.47
2023-08-25T07:35:01.168Z,5.00
2023-08-25T07:37:27.906Z,5.40
2023-08-25T07:39:55.617Z,5.05
2023-08-25T07:42:23.966Z,5.20
2023-08-25T07:44:50.939Z,5.63
2023-08-25T07:47:19.297Z,4.88
2023-08-25T07:49:45.990Z,4.10
2023-08-25T07:52:12.596Z,4.22
2023-08-25T07:54:39.454Z,4.50
2023-08-25T07:57:06.408Z,4.07
2023-08-25T07:59:33.091Z,4.10
2023-08-25T08:02:00.150Z,4.32
2023-08-25T08:04:28.278Z,3.83
2023-08-25T08:06:56.643Z,4.00
2023-08-25T08:09:23.217Z,4.30
2023-08-25T08:11:50.095Z,4.30
2023-08-25T08:14:16.678Z,4.30
2023-08-25T08:16:43.343Z,3.70
2023-08-25T08:19:12.385Z,3.60
2023-08-25T08:21:40.366Z,4.13
2023-08-25T08:24:07.146Z,4.50
2023-08-25T08:26:33.710Z,4.20
2023-08-25T08:29:01.089Z,4.90
2023-08-25T08:31:28.402Z,5.18
2023-08-25T08:33:55.482Z,5.25
2023-08-25T08:36:22.067Z,5.70
2023-08-25T08:38:50.047Z,6.10
2023-08-25T08:41:18.355Z,7.03
2023-08-25T08:43:46.357Z,6.80
2023-08-25T08:46:17.383Z,6.28
2023-08-25T08:48:45.014Z,6.60
2023-08-25T08:51:15.000Z,7.50
2023-08-25T08:53:42.861Z,7.03
2023-08-25T08:56:11.181Z,8.23
2023-08-25T08:58:37.980Z,7.60
2023-08-25T09:01:05.111Z,8.00
2023-08-25T09:03:33.580Z,8.25
2023-08-25T09:06:04.290Z,8.82
2023-08-25T09:08:31.489Z,10.30
2023-08-25T09:10:59.628Z,11.07
2023-08-25T09:13:28.618Z,9.98
2023-08-25T09:15:56.216Z,8.95
2023-08-25T09:18:22.901Z,8.18
2023-08-25T09:20:50.135Z,8.50
2023-08-25T09:23:17.611Z,7.40
2023-08-25T09:25:44.252Z,7.75
2023-08-25T09:28:11.104Z,8.20
2023-08-25T09:30:40.142Z,6.18
2023-08-25T09:33:07.503Z,5.50
2023-08-25T09:35:34.642Z,4.90
2023-08-25T09:38:01.498Z,5.20
2023-08-25T09:40:31.118Z,4.75
2023-08-25T09:42:59.096Z,5.00
2023-08-25T09:45:27.366Z,5.43
2023-08-25T09:47:55.937Z,5.55
2023-08-25T09:50:22.995Z,6.30
2023-08-25T09:52:51.057Z,7.32
2023-08-25T09:55:19.292Z,6.33
2023-08-25T09:57:47.582Z,5.72
2023-08-25T10:00:16.081Z,5.80
2023-08-25T10:02:44.263Z,7.40
2023-08-25T10:05:14.133Z,5.28
2023-08-25T10:07:41.311Z,5.20
2023-08-25T10:10:08.826Z,5.10
2023-08-25T10:12:36.710Z,5.53
2023-08-25T10:15:04.594Z,6.53
2023-08-25T10:17:31.714Z,5.88
2023-08-25T10:20:02.200Z,5.40
2023-08-25T10:22:31.287Z,6.05
2023-08-25T10:25:01.123Z,5.70
2023-08-25T10:27:28.168Z,5.80
2023-08-25T10:29:55.089Z,7.38
2023-08-25T10:32:22.642Z,7.25
2023-08-25T10:34:53.782Z,6.80
2023-08-25T10:37:24.264Z,7.30
2023-08-25T10:39:57.143Z,7.47
2023-08-25T10:42:25.005Z,7.28
2023-08-25T10:44:56.050Z,7.30
2023-08-25T10:47:23.661Z,6.22
2023-08-25T10:49:53.270Z,6.70
2023-08-25T10:52:21.177Z,5.97
2023-08-25T10:54:53.472Z,6.00
2023-08-25T10:57:20.728Z,5.30
2023-08-25T10:59:52.671Z,4.93
2023-08-25T11:02:34.161Z,6.17
2023-08-25T11:05:21.105Z,5.40
2023-08-25T11:07:49.025Z,5.10
2023-08-25T11:10:22.917Z,6.27
2023-08-25T11:13:07.450Z,6.57
2023-08-25T11:15:36.854Z,6.90
2023-08-25T11:18:03.703Z,6.30
2023-08-25T11:20:30.642Z,6.87
2023-08-25T11:23:16.859Z,7.53
2023-08-25T11:25:46.224Z,7.23
2023-08-25T11:28:13.302Z,7.93
2023-08-25T11:30:41.270Z,6.93
2023-08-25T11:33:08.169Z,7.67
2023-08-25T11:35:35.889Z,8.45
2023-08-25T11:38:03.169Z,7.30
2023-08-25T11:40:31.854Z,7.05
2023-08-25T11:43:03.229Z,7.00
2023-08-25T11:45:30.061Z,6.53
2023-08-25T11:47:57.379Z,6.45
2023-08-25T11:50:25.285Z,6.80
2023-08-25T11:52:51.972Z,6.22
2023-08-25T11:55:18.984Z,6.07
2023-08-25T11:57:50.594Z,6.68
2023-08-25T12:00:20.276Z,6.35
2023-08-25T12:02:56.688Z,6.40
2023-08-25T12:05:23.630Z,6.60
2023-08-25T12:07:53.231Z,5.25
2023-08-25T12:10:21.300Z,5.40
2023-08-25T12:12:48.173Z,6.40
2023-08-25T12:15:17.136Z,7.15
2023-08-25T12:17:48.713Z,7.38
2023-08-25T12:20:16.532Z,7.60
2023-08-25T12:22:54.061Z,8.20
2023-08-25T12:25:20.985Z,8.38
2023-08-25T12:27:48.990Z,7.57
2023-08-25T12:30:15.553Z,8.77
2023-08-25T12:32:42.323Z,7.60
2023-08-25T12:35:10.877Z,7.50
2023-08-25T12:37:37.620Z,7.63
2023-08-25T12:40:06.459Z,7.73
2023-08-25T12:42:34.014Z,7.85
2023-08-25T12:45:00.618Z,7.53
2023-08-25T12:47:27.581Z,7.75
2023-08-25T12:49:54.870Z,7.72
2023-08-25T12:52:23.100Z,7.65
2023-08-25T12:54:50.026Z,6.93
2023-08-25T12:57:17.574Z,6.80
2023-08-25T12:59:44.309Z,6.37
2023-08-25T13:02:10.911Z,6.15
2023-08-25T13:04:37.562Z,5.80
2023-08-25T13:07:04.962Z,6.00
2023-08-25T13:09:33.213Z,5.90
2023-08-25T13:11:59.844Z,5.20
2023-08-25T13:14:27.004Z,5.40
2023-08-25T13:16:54.401Z,5.55
2023-08-25T13:19:21.008Z,4.80
2023-08-25T13:21:47.719Z,5.20
2023-08-25T13:24:14.292Z,4.90
2023-08-25T13:26:42.450Z,5.00
2023-08-25T13:29:09.239Z,4.40
2023-08-25T13:31:35.897Z,3.67
2023-08-25T13:34:02.582Z,4.10
2023-08-25T13:36:29.803Z,3.70
2023-08-25T13:38:56.615Z,4.25
2023-08-25T13:41:23.876Z,3.97
2023-08-25T13:43:51.938Z,3.50
2023-08-25T13:46:18.627Z,3.30
2023-08-25T13:48:45.264Z,2.92
2023-08-25T13:51:11.887Z,3.30
2023-08-25T13:53:39.346Z,3.00
2023-08-25T13:56:06.417Z,2.97
2023-08-25T13:58:33.870Z,3.30
2023-08-25T14:01:01.911Z,2.50
2023-08-25T14:03:28.837Z,3.70
2023-08-25T14:05:58.639Z,3.10
2023-08-25T14:08:28.267Z,2.95
2023-08-25T14:10:54.809Z,3.30
2023-08-25T14:13:21.962Z,3.05
2023-08-25T14:15:48.573Z,3.10
2023-08-25T14:18:16.704Z,3.20
2023-08-25T14:20:43.433Z,3.50
2023-08-25T14:23:10.633Z,3.20
2023-08-25T14:25:37.839Z,3.80
2023-08-25T14:28:07.727Z,3.55
2023-08-25T14:30:34.922Z,3.78
2023-08-25T14:33:01.640Z,3.60
2023-08-25T14:35:30.511Z,3.97
2023-08-25T14:37:57.156Z,3.40
2023-08-25T14:40:23.728Z,3.97
2023-08-25T14:42:51.900Z,4.60
2023-08-25T14:45:19.156Z,4.90
2023-08-25T14:47:45.885Z,4.50
2023-08-25T14:50:12.518Z,5.03
2023-08-25T14:52:40.457Z,4.53
2023-08-25T14:55:08.028Z,4.75
2023-08-25T14:57:34.771Z,4.25
2023-08-25T15:00:04.500Z,5.07
2023-08-25T15:02:31.273Z,5.10
2023-08-25T15:04:57.868Z,4.80
2023-08-25T15:07:24.492Z,5.70
2023-08-25T15:09:52.466Z,5.60
2023-08-25T15:12:19.139Z,6.00
2023-08-25T15:14:45.745Z,5.72
2023-08-25T15:17:12.355Z,5.70
2023-08-25T15:19:39.487Z,5.30
2023-08-25T15:22:06.264Z,5.50
2023-08-25T15:24:32.824Z,5.57
2023-08-25T15:27:01.021Z,4.88
2023-08-25T15:29:37.789Z,5.35
2023-08-25T15:32:13.904Z,5.40
2023-08-25T15:34:40.770Z,4.90
2023-08-25T15:37:07.448Z,5.20
2023-08-25T15:39:34.151Z,4.97
2023-08-25T15:42:02.262Z,4.93
2023-08-25T15:44:29.302Z,4.03
2023-08-25T15:46:56.109Z,3.80
2023-08-25T15:49:22.712Z,3.93
2023-08-25T15:51:49.344Z,4.32
2023-08-25T15:54:16.529Z,3.83
2023-08-25T15:56:43.139Z,3.60
2023-08-25T15:59:11.230Z,3.00
2023-08-25T16:01:37.773Z,3.00
2023-08-25T16:04:04.663Z,2.65
2023-08-25T16:06:31.304Z,2.60
2023-08-25T16:08:58.677Z,2.20
2023-08-25T16:11:25.382Z,2.60
2023-08-25T16:13:53.315Z,2.80
2023-08-25T16:16:21.497Z,2.70
2023-08-25T16:18:48.328Z,2.55
2023-08-25T16:21:15.220Z,2.80
2023-08-25T16:23:42.039Z,2.67
2023-08-25T16:26:12.058Z,2.80
2023-08-25T16:28:40.930Z,3.08
2023-08-25T16:31:11.534Z,3.17
2023-08-25T16:33:41.614Z,3.70
2023-08-25T16:36:09.160Z,3.55
2023-08-25T16:38:38.721Z,3.47
2023-08-25T16:41:05.435Z,3.45
2023-08-25T16:43:32.110Z,4.20
2023-08-25T16:45:58.880Z,3.38
2023-08-25T16:48:27.224Z,3.22
2023-08-25T16:50:55.317Z,4.25
2023-08-25T16:53:21.900Z,3.38
2023-08-25T16:55:49.209Z,3.80
2023-08-25T16:58:16.216Z,3.70
2023-08-25T17:00:43.210Z,3.92
2023-08-25T17:03:10.858Z,3.60
2023-08-25T17:05:37.553Z,3.70
2023-08-25T17:08:07.866Z,3.92
2023-08-25T17:10:35.126Z,3.78
2023-08-25T17:13:02.202Z,4.88
2023-08-25T17:15:31.984Z,5.20
2023-08-25T17:17:59.728Z,4.82
2023-08-25T17:20:26.409Z,5.20
2023-08-25T17:22:56.659Z,5.38
2023-08-25T17:25:24.814Z,5.00
2023-08-25T17:27:52.908Z,5.60
2023-08-25T17:30:19.618Z,6.30
2023-08-25T17:32:46.345Z,6.35
2023-08-25T17:35:13.128Z,5.25
2023-08-25T17:37:39.805Z,5.82
2023-08-25T17:40:07.029Z,5.40
2023-08-25T17:42:35.382Z,5.57
2023-08-25T17:45:02.128Z,5.00
2023-08-25T17:47:29.784Z,5.47
2023-08-25T17:49:56.592Z,5.10
2023-08-25T17:52:23.156Z,5.55
2023-08-25T17:54:50.647Z,5.35
2023-08-25T17:57:17.624Z,5.00
2023-08-25T17:59:45.810Z,5.40
2023-08-25T18:02:13.283Z,4.68
2023-08-25T18:04:40.099Z,5.60
2023-08-25T18:07:07.012Z,5.20
2023-08-25T18:09:33.785Z,5.00
2023-08-25T18:12:01.604Z,4.80
2023-08-25T18:14:28.432Z,4.68
2023-08-25T18:16:57.283Z,5.35
2023-08-25T18:19:23.923Z,4.60
2023-08-25T18:21:50.919Z,5.03
2023-08-25T18:24:17.659Z,4.70
2023-08-25T18:26:44.961Z,4.63
2023-08-25T18:29:12.044Z,5.00
2023-08-25T18:31:40.023Z,4.30
2023-08-25T18:34:08.146Z,4.60
2023-08-25T18:36:34.979Z,3.92
2023-08-25T18:39:02.183Z,4.70
2023-08-25T18:41:29.160Z,4.50
2023-08-25T18:43:55.770Z,4.23
2023-08-25T18:46:23.744Z,4.35
2023-08-25T18:48:50.871Z,4.40
2023-08-25T18:51:19.023Z,4.80
2023-08-25T18:53:45.734Z,4.47
2023-08-25T18:56:13.211Z,4.78
2023-08-25T18:58:39.846Z,4.70
2023-08-25T19:01:07.101Z,4.50
2023-08-25T19:03:33.818Z,5.00
2023-08-25T19:06:02.239Z,4.80
2023-08-25T19:08:30.275Z,4.70
2023-08-25T19:11:00.436Z,4.60
2023-08-25T19:13:27.468Z,4.13
2023-08-25T19:15:58.155Z,4.68
2023-08-25T19:18:24.885Z,4.82
2023-08-25T19:20:51.560Z,4.95
2023-08-25T19:23:18.170Z,5.10
2023-08-25T19:25:53.144Z,5.00
2023-08-25T19:28:19.721Z,4.90
2023-08-25T19:30:46.581Z,5.10
2023-08-25T19:33:13.453Z,5.15
2023-08-25T19:35:40.303Z,5.25
2023-08-25T19:38:07.082Z,4.30
2023-08-25T19:40:33.955Z,4.43
2023-08-25T19:43:02.169Z,4.78
2023-08-25T19:45:28.782Z,5.35
2023-08-25T19:47:56.345Z,5.15
2023-08-25T19:50:23.154Z,5.75
2023-08-25T19:52:49.783Z,5.30
2023-08-25T19:55:16.540Z,5.82
2023-08-25T19:57:43.570Z,5.43
2023-08-25T20:00:13.217Z,6.40
2023-08-25T20:02:39.960Z,5.85
2023-08-25T20:05:07.295Z,6.32
2023-08-25T20:07:34.297Z,6.03
2023-08-25T20:10:00.860Z,6.45
2023-08-25T20:12:27.674Z,5.65
2023-08-25T20:14:54.259Z,6.68
2023-08-25T20:17:24.782Z,6.53
2023-08-25T20:19:51.397Z,6.47
2023-08-25T20:22:18.112Z,7.15
2023-08-25T20:24:44.696Z,6.50
2023-08-25T20:27:12.514Z,6.33
2023-08-25T20:29:39.525Z,6.85
2023-08-25T20:32:06.935Z,6.45
2023-08-25T20:34:35.066Z,6.45
2023-08-25T20:37:01.702Z,6.70
2023-08-25T20:39:28.277Z,7.47
2023-08-25T20:41:55.303Z,6.50
2023-08-25T20:44:22.245Z,6.20
2023-08-25T20:46:49.502Z,6.80
2023-08-25T20:49:16.128Z,6.07
2023-08-25T20:51:44.430Z,5.90
2023-08-25T20:54:10.976Z,5.93
2023-08-25T20:56:37.638Z,4.80
2023-08-25T20:59:04.354Z,5.73
2023-08-25T21:01:31.094Z,6.10
2023-08-25T21:03:58.166Z,5.60
2023-08-25T21:06:26.906Z,6.27
2023-08-25T21:08:54.941Z,5.73
2023-08-25T21:11:21.696Z,5.27
2023-08-25T21:13:48.312Z,5.87
2023-08-25T21:16:16.491Z,6.20
2023-08-25T21:18:43.216Z,6.27
2023-08-25T21:21:10.651Z,6.60
2023-08-25T21:23:37.297Z,7.17
2023-08-25T21:26:05.299Z,6.63
2023-08-25T21:28:31.918Z,6.30
2023-08-25T21:30:59.422Z,5.60
2023-08-25T21:33:27.193Z,6.20
2023-08-25T21:35:53.819Z,6.90
2023-08-25T21:38:22.676Z,7.10
2023-08-25T21:40:49.330Z,5.97
2023-08-25T21:43:17.484Z,6.50
2023-08-25T21:45:46.929Z,6.83
2023-08-25T21:48:13.730Z,6.67
2023-08-25T21:50:40.707Z,7.67
2023-08-25T21:53:07.316Z,6.60
2023-08-25T21:55:34.311Z,8.17
2023-08-25T21:58:01.605Z,7.67
2023-08-25T22:00:29.732Z,9.10
2023-08-25T22:02:56.683Z,8.10
2023-08-25T22:05:23.683Z,6.93
2023-08-25T22:07:50.280Z,6.70
2023-08-25T22:10:17.114Z,5.63
2023-08-25T22:12:43.818Z,7.73
2023-08-25T22:15:10.823Z,7.33
2023-08-25T22:17:39.852Z,7.40
2023-08-25T22:34:52.249Z,8.13
2023-08-25T22:37:18.946Z,9.43
2023-08-25T22:39:45.653Z,10.75
2023-08-25T22:42:12.256Z,8.30
2023-08-25T22:44:38.826Z,8.17
2023-08-25T22:47:05.502Z,8.00
2023-08-25T22:49:32.028Z,8.25
2023-08-25T22:52:02.790Z,6.78
2023-08-25T22:54:29.669Z,6.43
2023-08-25T22:56:56.405Z,6.47
2023-08-25T23:04:20.180Z,6.53
2023-08-25T23:06:47.192Z,6.73
2023-08-25T23:11:48.153Z,6.87
2023-08-25T23:14:15.389Z,6.67
2023-08-25T23:16:41.957Z,7.85
2023-08-25T23:19:08.534Z,6.93
2023-08-25T23:21:35.136Z,6.97
2023-08-25T23:48:28.837Z,7.00
2023-08-25T23:50:55.570Z,7.73
2023-08-25T23:53:22.278Z,8.80
2023-08-25T23:58:15.826Z,7.17
